Time;durP1;ratioP1;P1;durP2;ratioP2;P2;SDS_P1;SDS_P2;PMS_P1;PMS_P2;Temp;Humidity;BMP_temperature;BMP_pressure;BME280_temperature;BME280_humidity;BME280_pressure;Samples;Min_cycle;Max_cycle;Signal;HPM_P1;HPM_P2
2023/01/06 00:00:26;;;;;;;29.87;28.17;;;;;;;;;;5101229;28;20494;-83
2023/01/06 00:02:53;;;;;;;28.07;26.30;;;;;;;;;;5101165;28;20424;-84
2023/01/06 00:05:20;;;;;;;29.67;27.73;;;;;;;;;;5100291;28;20510;-84
2023/01/06 00:07:50;;;;;;;29.80;27.90;;;;;;;;;;5100962;28;20442;-83
2023/01/06 00:10:17;;;;;;;32.07;29.80;;;;;;;;;;5099254;28;20490;-83
2023/01/06 00:12:45;;;;;;;31.37;29.40;;;;;;;;;;5099840;28;20444;-84
2023/01/06 00:15:12;;;;;;;28.70;27.00;;;;;;;;;;5099608;28;20447;-84
2023/01/06 00:17:39;;;;;;;29.83;27.83;;;;;;;;;;5099723;28;20546;-83
2023/01/06 00:20:07;;;;;;;28.47;26.77;;;;;;;;;;5099778;28;20535;-83
2023/01/06 00:22:34;;;;;;;28.73;26.90;;;;;;;;;;5100184;28;20940;-84
2023/01/06 00:25:03;;;;;;;31.43;29.33;;;;;;;;;;5098652;28;20461;-84
2023/01/06 00:27:31;;;;;;;30.83;28.90;;;;;;;;;;5099466;28;20468;-82
2023/01/06 00:29:58;;;;;;;29.83;28.03;;;;;;;;;;5099384;28;20444;-83
2023/01/06 00:32:25;;;;;;;29.60;27.40;;;;;;;;;;5100071;28;20982;-83
2023/01/06 00:34:52;;;;;;;28.73;26.93;;;;;;;;;;5099622;28;20426;-83
2023/01/06 00:37:19;;;;;;;28.57;26.80;;;;;;;;;;5099019;28;20459;-83
2023/01/06 00:39:46;;;;;;;27.23;25.63;;;;;;;;;;5100179;28;20411;-83
2023/01/06 00:42:14;;;;;;;29.47;27.63;;;;;;;;;;5099981;28;20431;-83
2023/01/06 00:44:41;;;;;;;28.03;26.33;;;;;;;;;;5098719;28;20498;-84
2023/01/06 00:47:09;;;;;;;28.90;26.93;;;;;;;;;;5099615;28;20451;-84
2023/01/06 00:49:36;;;;;;;27.93;26.03;;;;;;;;;;5099449;28;20506;-83
2023/01/06 00:52:03;;;;;;;29.00;27.23;;;;;;;;;;5099186;28;20847;-82
2023/01/06 00:54:30;;;;;;;28.43;26.70;;;;;;;;;;5097859;28;20498;-83
2023/01/06 00:56:58;;;;;;;27.70;26.00;;;;;;;;;;5099441;28;20767;-83
2023/01/06 00:59:26;;;;;;;28.93;26.80;;;;;;;;;;5099301;28;20891;-84
2023/01/06 01:01:54;;;;;;;26.47;24.97;;;;;;;;;;5099630;28;20428;-83
2023/01/06 01:04:22;;;;;;;25.63;24.13;;;;;;;;;;5098788;28;20467;-84
2023/01/06 01:06:49;;;;;;;27.83;26.03;;;;;;;;;;5099088;28;20497;-83
2023/01/06 01:09:17;;;;;;;25.87;24.40;;;;;;;;;;5098567;28;20407;-83
2023/01/06 01:14:32;;;;;;;27.93;26.10;;;;;;;;;;5092708;28;20413;-83
2023/01/06 01:16:59;;;;;;;23.50;22.20;;;;;;;;;;5098352;28;20512;-84
2023/01/06 01:19:27;;;;;;;26.37;24.57;;;;;;;;;;5098854;28;20453;-83
2023/01/06 01:21:54;;;;;;;26.27;24.50;;;;;;;;;;5098594;28;20426;-83
2023/01/06 01:24:21;;;;;;;26.60;24.70;;;;;;;;;;5098074;28;20791;-83
2023/01/06 01:26:48;;;;;;;25.80;24.17;;;;;;;;;;5099306;28;20521;-84
2023/01/06 01:29:16;;;;;;;27.90;25.60;;;;;;;;;;5098684;28;20449;-84
2023/01/06 01:31:44;;;;;;;23.40;22.03;;;;;;;;;;5098782;28;20455;-83
2023/01/06 01:34:12;;;;;;;26.53;25.00;;;;;;;;;;5097983;28;20448;-83
2023/01/06 01:36:40;;;;;;;27.03;25.07;;;;;;;;;;5098122;28;20459;-83
2023/01/06 01:39:07;;;;;;;27.83;25.73;;;;;;;;;;5098095;28;20435;-83
2023/01/06 01:41:34;;;;;;;26.67;24.67;;;;;;;;;;5098774;28;20473;-82
2023/01/06 01:44:02;;;;;;;27.77;25.80;;;;;;;;;;5098321;28;21072;-84
2023/01/06 01:46:30;;;;;;;28.07;25.87;;;;;;;;;;5099462;28;20447;-83
2023/01/06 01:48:59;;;;;;;28.63;26.37;;;;;;;;;;5099931;28;20419;-83
2023/01/06 01:51:29;;;;;;;28.80;27.00;;;;;;;;;;5098756;28;20475;-83
2023/01/06 01:53:57;;;;;;;30.87;28.30;;;;;;;;;;5097981;28;20433;-83
2023/01/06 01:56:27;;;;;;;28.43;26.40;;;;;;;;;;5098477;28;20470;-84
2023/01/06 01:58:56;;;;;;;30.60;28.40;;;;;;;;;;5098224;28;20445;-84
2023/01/06 02:01:23;;;;;;;28.80;26.70;;;;;;;;;;5097664;28;20496;-83
2023/01/06 02:03:50;;;;;;;28.53;26.30;;;;;;;;;;5097381;28;20486;-83
2023/01/06 02:06:21;;;;;;;29.17;26.77;;;;;;;;;;5097869;28;20513;-84
2023/01/06 02:08:52;;;;;;;30.73;28.40;;;;;;;;;;5098121;28;20400;-83
2023/01/06 02:11:19;;;;;;;29.20;27.00;;;;;;;;;;5098211;28;20410;-83
2023/01/06 02:13:47;;;;;;;29.50;27.20;;;;;;;;;;5097566;28;20427;-84
2023/01/06 02:16:16;;;;;;;29.40;27.20;;;;;;;;;;5098067;28;20475;-82
2023/01/06 02:18:55;;;;;;;29.47;27.17;;;;;;;;;;5097499;28;20488;-83
2023/01/06 02:21:33;;;;;;;28.83;26.67;;;;;;;;;;5097742;28;20419;-84
2023/01/06 02:24:13;;;;;;;31.33;28.73;;;;;;;;;;5097510;28;20436;-84
2023/01/06 02:26:53;;;;;;;28.33;26.33;;;;;;;;;;5097444;28;20831;-83
2023/01/06 02:29:43;;;;;;;27.57;25.77;;;;;;;;;;5098042;28;20403;-83
2023/01/06 02:32:15;;;;;;;28.60;26.50;;;;;;;;;;5097905;28;20444;-83
2023/01/06 02:34:47;;;;;;;27.93;25.97;;;;;;;;;;5096079;28;20435;-83
2023/01/06 02:37:18;;;;;;;29.03;27.10;;;;;;;;;;5097739;28;20923;-84
2023/01/06 02:39:48;;;;;;;26.07;24.20;;;;;;;;;;5097563;28;20453;-83
2023/01/06 02:42:19;;;;;;;28.17;25.97;;;;;;;;;;5097423;28;20474;-83
2023/01/06 02:44:49;;;;;;;26.00;24.23;;;;;;;;;;5096720;28;20472;-83
2023/01/06 02:47:20;;;;;;;28.00;26.10;;;;;;;;;;5097218;28;20876;-83
2023/01/06 02:49:52;;;;;;;27.87;25.90;;;;;;;;;;5097209;28;20937;-83
2023/01/06 02:52:23;;;;;;;26.90;25.20;;;;;;;;;;5097657;28;20444;-82
2023/01/06 02:54:53;;;;;;;25.03;23.23;;;;;;;;;;5097260;28;20415;-83
2023/01/06 02:57:25;;;;;;;26.87;25.00;;;;;;;;;;5097311;28;20450;-84
2023/01/06 02:59:55;;;;;;;25.33;23.60;;;;;;;;;;5097441;28;20514;-84
2023/01/06 03:02:24;;;;;;;24.30;22.90;;;;;;;;;;5097880;28;20380;-84
2023/01/06 03:04:52;;;;;;;25.43;23.53;;;;;;;;;;5097357;28;20505;-83
2023/01/06 03:07:21;;;;;;;23.33;21.83;;;;;;;;;;5097652;28;20450;-84
2023/01/06 03:09:48;;;;;;;23.47;21.43;;;;;;;;;;5097970;28;20411;-83
2023/01/06 03:12:18;;;;;;;22.27;20.70;;;;;;;;;;5097763;28;20423;-84
2023/01/06 03:14:47;;;;;;;21.20;20.10;;;;;;;;;;5096885;28;20406;-83
2023/01/06 03:17:15;;;;;;;20.37;19.10;;;;;;;;;;5097582;28;20476;-83
2023/01/06 03:19:44;;;;;;;22.00;20.60;;;;;;;;;;5097316;28;20437;-83
2023/01/06 03:22:12;;;;;;;21.40;20.30;;;;;;;;;;5096871;28;20473;-83
2023/01/06 03:24:39;;;;;;;22.67;21.27;;;;;;;;;;5096967;28;20881;-83
2023/01/06 03:27:09;;;;;;;20.43;19.40;;;;;;;;;;5097546;28;20890;-84
2023/01/06 03:29:37;;;;;;;20.50;19.37;;;;;;;;;;5097879;28;20473;-84
2023/01/06 03:32:06;;;;;;;21.50;20.40;;;;;;;;;;5097586;28;20461;-83
2023/01/06 03:34:40;;;;;;;21.00;19.70;;;;;;;;;;5096797;28;20418;-84
2023/01/06 03:37:11;;;;;;;22.07;20.57;;;;;;;;;;5097573;28;20429;-83
2023/01/06 03:39:42;;;;;;;19.77;18.77;;;;;;;;;;5098335;28;20403;-83
2023/01/06 03:45:05;;;;;;;21.40;20.20;;;;;;;;;;5099083;28;20451;-84
2023/01/06 03:47:38;;;;;;;20.57;19.40;;;;;;;;;;5102055;28;20476;-84
2023/01/06 03:50:07;;;;;;;21.47;20.40;;;;;;;;;;5102208;28;20408;-84
2023/01/06 03:52:37;;;;;;;19.97;18.97;;;;;;;;;;5101004;28;20438;-84
2023/01/06 03:55:06;;;;;;;19.60;18.60;;;;;;;;;;5100850;28;20420;-84
2023/01/06 03:57:35;;;;;;;20.50;19.20;;;;;;;;;;5101767;28;20528;-85
2023/01/06 04:00:04;;;;;;;21.13;19.63;;;;;;;;;;5101887;28;20971;-85
2023/01/06 04:02:31;;;;;;;19.23;18.23;;;;;;;;;;5101983;28;20422;-84
2023/01/06 04:05:02;;;;;;;20.47;19.37;;;;;;;;;;5100927;28;20454;-85
2023/01/06 04:07:29;;;;;;;19.93;18.53;;;;;;;;;;5101270;28;21002;-84
2023/01/06 04:09:57;;;;;;;20.23;18.83;;;;;;;;;;5101499;28;20514;-84
2023/01/06 04:12:39;;;;;;;19.07;17.90;;;;;;;;;;5101292;28;20408;-84
2023/01/06 04:15:07;;;;;;;19.10;17.90;;;;;;;;;;5100445;28;20432;-83
2023/01/06 04:17:34;;;;;;;17.47;16.67;;;;;;;;;;5100488;28;20450;-84
2023/01/06 04:20:01;;;;;;;17.83;17.03;;;;;;;;;;5100525;28;20924;-84
2023/01/06 04:22:28;;;;;;;17.73;16.93;;;;;;;;;;5100823;28;20527;-84
2023/01/06 04:24:57;;;;;;;17.67;16.77;;;;;;;;;;5100307;28;20513;-84
2023/01/06 04:27:24;;;;;;;19.17;17.90;;;;;;;;;;5100385;28;20498;-84
2023/01/06 04:29:51;;;;;;;18.27;17.37;;;;;;;;;;5101086;28;20791;-84
2023/01/06 04:32:18;;;;;;;18.20;17.30;;;;;;;;;;5101253;28;20422;-84
2023/01/06 04:34:45;;;;;;;17.77;16.97;;;;;;;;;;5100153;28;20419;-84
2023/01/06 04:37:14;;;;;;;19.17;18.13;;;;;;;;;;5100665;28;20450;-84
2023/01/06 04:39:41;;;;;;;18.43;17.53;;;;;;;;;;5101325;28;20399;-84
2023/01/06 04:42:09;;;;;;;19.07;17.97;;;;;;;;;;5100343;28;20411;-84
2023/01/06 04:44:36;;;;;;;18.37;17.47;;;;;;;;;;5099880;28;20453;-83
2023/01/06 04:47:03;;;;;;;18.87;17.87;;;;;;;;;;5100175;28;20446;-84
2023/01/06 04:49:30;;;;;;;19.10;18.00;;;;;;;;;;5100051;28;20471;-83
2023/01/06 04:51:57;;;;;;;18.47;17.57;;;;;;;;;;5099580;28;20424;-83
2023/01/06 04:54:24;;;;;;;19.27;18.17;;;;;;;;;;5099822;28;20412;-84
2023/01/06 04:56:51;;;;;;;19.67;18.47;;;;;;;;;;5099440;28;20469;-83
2023/01/06 04:59:20;;;;;;;19.70;18.53;;;;;;;;;;5100494;28;20423;-83
2023/01/06 05:01:47;;;;;;;18.73;17.63;;;;;;;;;;5100004;28;20447;-84
2023/01/06 05:04:14;;;;;;;19.10;18.00;;;;;;;;;;5099704;28;20400;-85
2023/01/06 05:06:41;;;;;;;18.20;17.40;;;;;;;;;;5099750;28;20492;-84
2023/01/06 05:09:08;;;;;;;18.97;17.97;;;;;;;;;;5100098;28;20863;-85
2023/01/06 05:11:35;;;;;;;19.50;18.60;;;;;;;;;;5099433;28;20452;-83
2023/01/06 05:14:02;;;;;;;18.90;17.90;;;;;;;;;;5099566;28;20407;-83
2023/01/06 05:16:32;;;;;;;19.43;18.33;;;;;;;;;;5099371;28;20487;-84
2023/01/06 05:18:59;;;;;;;19.10;18.10;;;;;;;;;;5099478;28;20473;-83
2023/01/06 05:21:27;;;;;;;19.83;18.80;;;;;;;;;;5099591;28;20458;-83
2023/01/06 05:23:54;;;;;;;19.73;18.63;;;;;;;;;;5098906;28;20462;-84
2023/01/06 05:26:23;;;;;;;19.20;18.10;;;;;;;;;;5099762;28;20528;-84
2023/01/06 05:28:50;;;;;;;19.43;18.33;;;;;;;;;;5099080;28;20436;-83
2023/01/06 05:31:17;;;;;;;19.83;18.37;;;;;;;;;;5099683;28;20471;-84
2023/01/06 05:33:46;;;;;;;20.40;19.03;;;;;;;;;;5099103;28;20444;-83
2023/01/06 05:36:14;;;;;;;20.63;19.43;;;;;;;;;;5099372;28;20464;-84
2023/01/06 05:38:41;;;;;;;19.70;18.60;;;;;;;;;;5099399;28;20498;-84
2023/01/06 05:41:08;;;;;;;19.83;18.53;;;;;;;;;;5099080;28;20438;-84
2023/01/06 05:43:36;;;;;;;19.00;18.10;;;;;;;;;;5099020;28;20427;-83
2023/01/06 05:46:07;;;;;;;20.10;19.10;;;;;;;;;;5099552;28;20890;-85
2023/01/06 05:48:34;;;;;;;18.30;17.40;;;;;;;;;;5099282;28;20405;-85
2023/01/06 05:51:03;;;;;;;20.93;19.37;;;;;;;;;;5099314;28;20892;-83
2023/01/06 05:53:33;;;;;;;18.73;17.70;;;;;;;;;;5098846;28;20456;-84
2023/01/06 05:56:00;;;;;;;18.67;17.47;;;;;;;;;;5099335;28;20479;-83
2023/01/06 05:58:27;;;;;;;18.67;17.70;;;;;;;;;;5098273;28;20472;-84
2023/01/06 06:00:54;;;;;;;17.50;16.70;;;;;;;;;;5099330;28;20412;-85
2023/01/06 06:03:21;;;;;;;19.07;18.03;;;;;;;;;;5098981;28;20484;-83
2023/01/06 06:05:48;;;;;;;19.60;18.40;;;;;;;;;;5098606;28;20484;-84
2023/01/06 06:08:17;;;;;;;27.27;18.03;;;;;;;;;;5099096;28;20408;-83
2023/01/06 06:10:44;;;;;;;20.63;19.30;;;;;;;;;;5098848;28;20505;-83
2023/01/06 06:13:11;;;;;;;19.33;17.90;;;;;;;;;;5097924;28;20456;-84
2023/01/06 06:15:38;;;;;;;19.20;18.00;;;;;;;;;;5098443;28;20479;-84
2023/01/06 06:18:05;;;;;;;18.63;17.70;;;;;;;;;;5099013;28;20460;-84
2023/01/06 06:20:32;;;;;;;19.80;18.70;;;;;;;;;;5099275;28;20480;-85
2023/01/06 06:22:59;;;;;;;18.07;17.07;;;;;;;;;;5097985;28;20413;-86
2023/01/06 06:25:28;;;;;;;18.60;17.60;;;;;;;;;;5098672;28;20490;-84
2023/01/06 06:27:58;;;;;;;19.60;18.60;;;;;;;;;;5098419;28;20453;-84
2023/01/06 06:30:24;;;;;;;18.60;17.50;;;;;;;;;;5099119;28;20462;-84
2023/01/06 06:32:51;;;;;;;19.03;18.03;;;;;;;;;;5099653;28;20427;-87
2023/01/06 06:35:19;;;;;;;18.97;17.83;;;;;;;;;;5097500;28;20463;-83
2023/01/06 06:37:46;;;;;;;18.10;17.20;;;;;;;;;;5098567;28;20477;-83
2023/01/06 06:40:13;;;;;;;19.27;18.30;;;;;;;;;;5098209;28;20423;-83
2023/01/06 06:42:41;;;;;;;18.70;17.50;;;;;;;;;;5097951;28;20790;-83
2023/01/06 06:45:09;;;;;;;18.73;17.43;;;;;;;;;;5097885;28;20455;-83
2023/01/06 06:47:36;;;;;;;17.97;16.97;;;;;;;;;;5097746;28;20567;-84
2023/01/06 06:50:03;;;;;;;18.47;17.43;;;;;;;;;;5098424;28;20488;-84
2023/01/06 06:52:30;;;;;;;18.53;17.63;;;;;;;;;;5098667;28;20793;-83
2023/01/06 06:54:57;;;;;;;18.13;17.23;;;;;;;;;;5096760;28;20494;-84
2023/01/06 06:57:24;;;;;;;19.00;17.90;;;;;;;;;;5098009;28;20492;-82
2023/01/06 06:59:52;;;;;;;18.03;17.03;;;;;;;;;;5098036;28;20415;-83
2023/01/06 07:02:19;;;;;;;18.63;17.63;;;;;;;;;;5097475;28;20460;-84
2023/01/06 07:04:46;;;;;;;19.20;18.10;;;;;;;;;;5097143;28;20957;-83
2023/01/06 07:07:13;;;;;;;18.10;17.10;;;;;;;;;;5097886;28;20794;-83
2023/01/06 07:09:40;;;;;;;18.93;17.90;;;;;;;;;;5098450;28;20427;-83
2023/01/06 07:12:07;;;;;;;18.23;17.23;;;;;;;;;;5098278;28;20915;-83
2023/01/06 07:14:34;;;;;;;18.30;17.40;;;;;;;;;;5097953;28;20815;-83
2023/01/06 07:17:03;;;;;;;18.30;17.40;;;;;;;;;;5097489;28;20489;-83
2023/01/06 07:19:30;;;;;;;17.67;16.77;;;;;;;;;;5097982;28;20431;-83
2023/01/06 07:21:57;;;;;;;18.00;17.00;;;;;;;;;;5101912;28;20840;-83
2023/01/06 07:24:24;;;;;;;17.73;16.83;;;;;;;;;;5100573;28;20490;-82
2023/01/06 07:26:51;;;;;;;17.37;16.47;;;;;;;;;;5101177;28;20538;-83
2023/01/06 07:29:18;;;;;;;17.73;16.73;;;;;;;;;;5101902;28;20433;-82
2023/01/06 07:31:45;;;;;;;18.10;17.10;;;;;;;;;;5101367;28;20433;-83
2023/01/06 07:34:13;;;;;;;17.30;16.50;;;;;;;;;;5100782;28;20416;-84
2023/01/06 07:36:40;;;;;;;17.53;16.53;;;;;;;;;;5101199;28;20424;-84
2023/01/06 07:39:07;;;;;;;18.90;17.70;;;;;;;;;;5101517;28;20490;-82
2023/01/06 07:41:34;;;;;;;18.57;17.57;;;;;;;;;;5100983;28;20496;-81
2023/01/06 07:44:01;;;;;;;17.90;17.00;;;;;;;;;;5099771;28;20448;-83
2023/01/06 07:46:28;;;;;;;18.73;17.33;;;;;;;;;;5098507;28;20467;-80
2023/01/06 07:48:55;;;;;;;19.23;18.03;;;;;;;;;;5099364;28;20448;-78
2023/01/06 07:51:23;;;;;;;18.43;17.50;;;;;;;;;;5099464;28;20815;-80
2023/01/06 07:53:50;;;;;;;18.80;17.80;;;;;;;;;;5098832;28;20431;-79
2023/01/06 07:56:17;;;;;;;18.47;17.57;;;;;;;;;;5098549;28;20512;-80
2023/01/06 07:58:44;;;;;;;19.30;18.30;;;;;;;;;;5099064;28;20430;-79
2023/01/06 08:01:12;;;;;;;19.03;17.93;;;;;;;;;;5098462;28;20497;-79
2023/01/06 08:03:39;;;;;;;18.90;17.80;;;;;;;;;;5098217;28;20580;-79
2023/01/06 08:06:06;;;;;;;18.73;17.53;;;;;;;;;;5098503;28;20489;-80
2023/01/06 08:08:37;;;;;;;18.70;17.60;;;;;;;;;;5098241;28;20492;-80
2023/01/06 08:11:04;;;;;;;19.13;18.03;;;;;;;;;;5099030;28;20520;-80
2023/01/06 08:13:32;;;;;;;18.77;17.77;;;;;;;;;;5098249;28;20432;-80
2023/01/06 08:15:59;;;;;;;18.07;17.17;;;;;;;;;;5099296;28;20472;-79
2023/01/06 08:18:28;;;;;;;18.50;17.40;;;;;;;;;;5098478;28;20415;-80
2023/01/06 08:21:00;;;;;;;18.40;17.50;;;;;;;;;;5098831;28;20452;-81
2023/01/06 08:23:27;;;;;;;18.30;17.30;;;;;;;;;;5097225;28;20398;-79
2023/01/06 08:26:01;;;;;;;18.73;17.83;;;;;;;;;;5097003;28;21064;-79
2023/01/06 08:28:28;;;;;;;19.33;18.13;;;;;;;;;;5097590;28;20424;-79
2023/01/06 08:30:55;;;;;;;19.30;17.97;;;;;;;;;;5096267;28;20523;-79
2023/01/06 08:33:24;;;;;;;18.03;16.97;;;;;;;;;;5096449;28;20434;-79
2023/01/06 08:35:51;;;;;;;18.90;17.90;;;;;;;;;;5097417;28;20447;-78
2023/01/06 08:38:18;;;;;;;18.77;17.70;;;;;;;;;;5098390;28;20419;-79
2023/01/06 08:40:45;;;;;;;19.33;18.33;;;;;;;;;;5097504;28;20844;-78
2023/01/06 08:43:13;;;;;;;19.17;18.07;;;;;;;;;;5096414;28;20784;-79
2023/01/06 08:45:40;;;;;;;19.13;18.13;;;;;;;;;;5096957;28;20435;-78
2023/01/06 08:48:07;;;;;;;18.00;17.10;;;;;;;;;;5097070;28;20533;-79
2023/01/06 08:50:34;;;;;;;18.03;17.13;;;;;;;;;;5097132;28;20472;-78
2023/01/06 08:53:01;;;;;;;17.57;16.67;;;;;;;;;;5096410;28;20423;-78
2023/01/06 08:55:28;;;;;;;17.70;16.80;;;;;;;;;;5096702;28;20422;-78
2023/01/06 08:57:55;;;;;;;17.97;17.07;;;;;;;;;;5096744;28;20446;-79
2023/01/06 09:00:24;;;;;;;18.10;17.10;;;;;;;;;;5097277;28;20423;-79
2023/01/06 09:02:51;;;;;;;18.70;17.70;;;;;;;;;;5097068;28;20449;-78
2023/01/06 09:05:18;;;;;;;18.77;17.70;;;;;;;;;;5096418;28;20499;-79
2023/01/06 09:07:45;;;;;;;18.03;17.13;;;;;;;;;;5096873;28;20470;-79
2023/01/06 09:10:12;;;;;;;18.13;17.03;;;;;;;;;;5097946;28;20411;-79
2023/01/06 09:12:40;;;;;;;18.37;17.37;;;;;;;;;;5097825;28;20456;-79
2023/01/06 09:15:07;;;;;;;17.20;16.30;;;;;;;;;;5096675;28;20427;-79
2023/01/06 09:17:36;;;;;;;18.10;17.10;;;;;;;;;;5097415;28;20493;-79
2023/01/06 09:20:03;;;;;;;18.40;17.40;;;;;;;;;;5097350;28;20492;-80
2023/01/06 09:22:30;;;;;;;17.33;16.43;;;;;;;;;;5097529;28;20438;-79
2023/01/06 09:24:57;;;;;;;18.17;17.20;;;;;;;;;;5096936;28;20408;-79
2023/01/06 09:27:24;;;;;;;17.10;16.30;;;;;;;;;;5097148;28;20496;-80
2023/01/06 09:29:52;;;;;;;17.20;16.30;;;;;;;;;;5097549;28;20415;-79
2023/01/06 09:32:19;;;;;;;17.00;16.20;;;;;;;;;;5097122;28;20782;-78
2023/01/06 09:34:47;;;;;;;16.93;16.13;;;;;;;;;;5097277;28;20484;-79
2023/01/06 09:37:14;;;;;;;17.63;16.63;;;;;;;;;;5096968;28;20514;-79
2023/01/06 09:39:41;;;;;;;17.03;16.23;;;;;;;;;;5097276;28;20433;-79
2023/01/06 09:42:16;;;;;;;17.57;16.77;;;;;;;;;;5096451;28;20424;-79
2023/01/06 09:44:47;;;;;;;17.80;16.93;;;;;;;;;;5096808;28;20461;-79
2023/01/06 09:47:16;;;;;;;17.77;16.83;;;;;;;;;;5096705;28;20493;-79
2023/01/06 09:49:44;;;;;;;17.53;16.63;;;;;;;;;;5097032;28;20493;-79
2023/01/06 09:52:16;;;;;;;17.83;16.47;;;;;;;;;;5097046;28;20438;-80
2023/01/06 09:54:46;;;;;;;17.40;16.60;;;;;;;;;;5096523;28;20419;-79
2023/01/06 09:57:16;;;;;;;19.13;17.57;;;;;;;;;;5097074;28;20488;-79
2023/01/06 09:59:47;;;;;;;18.47;17.13;;;;;;;;;;5096707;28;20830;-80
2023/01/06 10:02:15;;;;;;;17.47;16.57;;;;;;;;;;5096523;28;20905;-79
2023/01/06 10:04:42;;;;;;;17.80;16.97;;;;;;;;;;5095125;28;20481;-76
2023/01/06 10:07:13;;;;;;;19.03;18.03;;;;;;;;;;5093405;28;20858;-77
2023/01/06 10:09:46;;;;;;;19.77;18.70;;;;;;;;;;5093916;28;20505;-77
2023/01/06 10:12:28;;;;;;;18.70;17.80;;;;;;;;;;5095070;28;20459;-79
2023/01/06 10:14:58;;;;;;;20.00;19.00;;;;;;;;;;5098024;28;20439;-79
2023/01/06 10:17:33;;;;;;;20.83;19.83;;;;;;;;;;5098395;28;20950;-80
2023/01/06 10:20:06;;;;;;;22.67;21.37;;;;;;;;;;5098568;28;20919;-81
2023/01/06 10:22:38;;;;;;;21.57;20.47;;;;;;;;;;5098659;28;20474;-80
2023/01/06 10:25:11;;;;;;;22.20;21.10;;;;;;;;;;5098556;28;20421;-80
2023/01/06 10:27:39;;;;;;;23.40;22.10;;;;;;;;;;5098731;28;20495;-80
2023/01/06 10:30:16;;;;;;;22.43;21.33;;;;;;;;;;5099269;28;20453;-80
2023/01/06 10:32:44;;;;;;;23.17;22.03;;;;;;;;;;5099000;28;20432;-80
2023/01/06 10:35:15;;;;;;;24.00;22.40;;;;;;;;;;5097864;28;20500;-79
2023/01/06 10:37:43;;;;;;;23.63;22.43;;;;;;;;;;5097974;28;20485;-80
2023/01/06 10:40:18;;;;;;;22.60;21.50;;;;;;;;;;5098671;28;20452;-80
2023/01/06 10:42:56;;;;;;;24.17;22.87;;;;;;;;;;5099176;28;20406;-80
2023/01/06 10:45:23;;;;;;;21.80;20.70;;;;;;;;;;5098656;28;20415;-79
2023/01/06 10:47:51;;;;;;;23.40;22.20;;;;;;;;;;5098807;28;20483;-80
2023/01/06 10:50:18;;;;;;;23.20;22.10;;;;;;;;;;5099095;28;20455;-80
2023/01/06 10:52:46;;;;;;;23.77;22.57;;;;;;;;;;5099029;28;20430;-80
2023/01/06 10:55:20;;;;;;;23.73;22.53;;;;;;;;;;5097885;28;20420;-80
2023/01/06 10:57:48;;;;;;;23.90;22.50;;;;;;;;;;5098655;28;20438;-80
2023/01/06 11:00:17;;;;;;;23.77;22.27;;;;;;;;;;5099074;28;20428;-79
2023/01/06 11:02:45;;;;;;;23.90;22.77;;;;;;;;;;5097698;28;20900;-79
2023/01/06 11:05:16;;;;;;;23.37;22.27;;;;;;;;;;5097139;28;20451;-80
2023/01/06 11:07:48;;;;;;;23.67;22.37;;;;;;;;;;5097378;28;20476;-80
2023/01/06 11:10:23;;;;;;;23.60;22.30;;;;;;;;;;5098182;28;20494;-81
2023/01/06 11:12:50;;;;;;;24.63;23.23;;;;;;;;;;5097457;28;20457;-80
2023/01/06 11:15:20;;;;;;;26.90;24.83;;;;;;;;;;5096324;28;20472;-80
2023/01/06 11:17:48;;;;;;;23.73;22.13;;;;;;;;;;5097486;28;20450;-87
2023/01/06 11:20:28;;;;;;;25.60;24.10;;;;;;;;;;5102318;28;20444;-80
2023/01/06 11:22:56;;;;;;;23.83;22.43;;;;;;;;;;5114916;28;20441;-81
2023/01/06 11:25:29;;;;;;;23.67;22.37;;;;;;;;;;5112724;28;20502;-80
2023/01/06 11:28:10;;;;;;;21.43;20.33;;;;;;;;;;5103858;28;20490;-79
2023/01/06 11:30:39;;;;;;;21.37;20.20;;;;;;;;;;5098176;28;20432;-79
2023/01/06 11:33:14;;;;;;;22.50;21.30;;;;;;;;;;5096992;28;20415;-80
2023/01/06 11:35:41;;;;;;;23.50;22.00;;;;;;;;;;5097030;28;20571;-79
2023/01/06 11:38:12;;;;;;;28.93;26.93;;;;;;;;;;5097074;28;20444;-79
2023/01/06 11:40:40;;;;;;;25.40;23.80;;;;;;;;;;5097319;28;20415;-80
2023/01/06 11:43:09;;;;;;;30.03;27.77;;;;;;;;;;5096863;28;20459;-80
2023/01/06 11:45:39;;;;;;;24.23;22.77;;;;;;;;;;5096628;28;20456;-79
2023/01/06 11:48:07;;;;;;;26.10;24.40;;;;;;;;;;5097124;28;20981;-79
2023/01/06 11:50:35;;;;;;;21.90;20.80;;;;;;;;;;5096190;28;20977;-79
2023/01/06 11:53:03;;;;;;;21.80;20.57;;;;;;;;;;5096592;28;20449;-80
2023/01/06 11:55:30;;;;;;;30.63;21.67;;;;;;;;;;5095852;28;20451;-79
2023/01/06 11:58:01;;;;;;;33.43;30.60;;;;;;;;;;5097338;28;20541;-80
2023/01/06 12:00:34;;;;;;;24.63;22.67;;;;;;;;;;5096393;28;20448;-79
2023/01/06 12:03:06;;;;;;;22.77;21.40;;;;;;;;;;5096010;28;20451;-79
2023/01/06 12:05:35;;;;;;;22.20;20.73;;;;;;;;;;5096277;28;20517;-79
2023/01/06 12:08:05;;;;;;;23.70;22.40;;;;;;;;;;5099751;28;20982;-79
2023/01/06 12:10:33;;;;;;;21.60;20.30;;;;;;;;;;5100426;28;20427;-79
2023/01/06 12:13:02;;;;;;;22.30;21.10;;;;;;;;;;5099872;28;20448;-80
2023/01/06 12:15:31;;;;;;;22.10;20.90;;;;;;;;;;5100251;28;20474;-79
2023/01/06 12:18:00;;;;;;;20.80;19.70;;;;;;;;;;5100591;28;20433;-79
2023/01/06 12:20:28;;;;;;;19.20;18.20;;;;;;;;;;5100211;28;20921;-79
2023/01/06 12:22:58;;;;;;;21.30;20.10;;;;;;;;;;5098690;28;20482;-79
2023/01/06 12:25:26;;;;;;;21.30;20.10;;;;;;;;;;5099653;28;20498;-78
2023/01/06 12:27:55;;;;;;;20.93;19.83;;;;;;;;;;5098318;28;20534;-80
2023/01/06 12:30:27;;;;;;;21.57;20.33;;;;;;;;;;5100022;28;20455;-78
2023/01/06 12:32:56;;;;;;;22.73;21.53;;;;;;;;;;5099909;28;20454;-79
2023/01/06 12:35:25;;;;;;;21.57;20.37;;;;;;;;;;5099098;28;20423;-79
2023/01/06 12:37:54;;;;;;;23.37;21.80;;;;;;;;;;5098685;28;20988;-79
2023/01/06 12:40:24;;;;;;;22.10;20.90;;;;;;;;;;5099905;28;20452;-79
2023/01/06 12:42:53;;;;;;;23.43;22.13;;;;;;;;;;5099126;28;20456;-82
2023/01/06 12:45:24;;;;;;;22.47;21.27;;;;;;;;;;5099601;28;20498;-79
2023/01/06 12:47:54;;;;;;;20.43;19.43;;;;;;;;;;5098748;28;20902;-79
2023/01/06 12:50:27;;;;;;;23.53;22.33;;;;;;;;;;5099043;28;20464;-90
2023/01/06 12:52:55;;;;;;;21.23;20.20;;;;;;;;;;5100337;28;20545;-79
2023/01/06 12:55:27;;;;;;;21.10;20.00;;;;;;;;;;5100253;28;21002;-79
2023/01/06 12:57:57;;;;;;;22.73;21.43;;;;;;;;;;5100377;28;20516;-80
2023/01/06 13:00:35;;;;;;;20.77;19.67;;;;;;;;;;5099812;28;20422;-80
2023/01/06 13:03:20;;;;;;;20.20;19.10;;;;;;;;;;5100140;28;20490;-80
2023/01/06 13:05:52;;;;;;;20.50;19.40;;;;;;;;;;5100476;28;20429;-80
2023/01/06 13:08:26;;;;;;;20.80;19.47;;;;;;;;;;5099788;28;20456;-79
2023/01/06 13:10:54;;;;;;;20.20;19.10;;;;;;;;;;5100997;28;20459;-80
2023/01/06 13:13:34;;;;;;;20.60;19.50;;;;;;;;;;5100367;28;20411;-79
2023/01/06 13:16:03;;;;;;;19.77;18.77;;;;;;;;;;5100576;28;20465;-79
2023/01/06 13:18:33;;;;;;;21.10;20.00;;;;;;;;;;5099335;28;20450;-80
2023/01/06 13:21:02;;;;;;;22.87;21.50;;;;;;;;;;5100528;28;20437;-79
2023/01/06 13:23:38;;;;;;;24.03;22.63;;;;;;;;;;5099088;28;20449;-80
2023/01/06 13:26:24;;;;;;;20.80;19.70;;;;;;;;;;5100520;28;20518;-80
2023/01/06 13:28:55;;;;;;;23.17;21.77;;;;;;;;;;5100069;28;20467;-80
2023/01/06 13:31:32;;;;;;;20.10;19.00;;;;;;;;;;5100735;28;20425;-80
2023/01/06 13:34:09;;;;;;;21.20;20.10;;;;;;;;;;5100432;28;20436;-80
2023/01/06 13:36:47;;;;;;;21.13;19.83;;;;;;;;;;5099951;28;20506;-80
2023/01/06 13:39:16;;;;;;;19.63;18.63;;;;;;;;;;5100129;28;20498;-80
2023/01/06 13:41:46;;;;;;;22.57;21.27;;;;;;;;;;5100264;28;20931;-80
2023/01/06 13:44:16;;;;;;;23.10;21.73;;;;;;;;;;5100040;28;20480;-80
2023/01/06 13:46:43;;;;;;;19.17;18.27;;;;;;;;;;5100938;28;20445;-80
2023/01/06 13:49:12;;;;;;;20.50;19.37;;;;;;;;;;5099911;28;20464;-80
2023/01/06 13:51:41;;;;;;;22.80;21.40;;;;;;;;;;5100468;28;20569;-80
2023/01/06 13:54:24;;;;;;;22.57;21.17;;;;;;;;;;5099751;28;20412;-80
2023/01/06 13:57:12;;;;;;;20.23;19.10;;;;;;;;;;5099629;28;21144;-84
2023/01/06 13:59:49;;;;;;;21.80;20.40;;;;;;;;;;5096849;28;20423;-78
2023/01/06 14:02:31;;;;;;;21.97;20.70;;;;;;;;;;5096289;28;20404;-78
2023/01/06 14:04:58;;;;;;;23.37;21.87;;;;;;;;;;5094771;28;20440;-78
2023/01/06 14:07:33;;;;;;;22.47;21.23;;;;;;;;;;5097336;28;20514;-78
2023/01/06 14:10:01;;;;;;;23.47;21.83;;;;;;;;;;5096389;28;20464;-78
2023/01/06 14:12:28;;;;;;;23.93;21.97;;;;;;;;;;5096784;28;20448;-79
2023/01/06 14:14:58;;;;;;;22.33;21.13;;;;;;;;;;5096429;28;20440;-79
2023/01/06 14:17:29;;;;;;;23.00;21.60;;;;;;;;;;5096787;28;20439;-78
2023/01/06 14:19:57;;;;;;;23.60;22.00;;;;;;;;;;5096462;28;20451;-79
2023/01/06 14:22:26;;;;;;;21.93;20.53;;;;;;;;;;5097508;28;20467;-78
2023/01/06 14:24:54;;;;;;;22.00;20.80;;;;;;;;;;5096789;28;20460;-79
2023/01/06 14:27:36;;;;;;;21.73;20.43;;;;;;;;;;5097313;28;20527;-78
2023/01/06 14:30:19;;;;;;;21.40;20.30;;;;;;;;;;5094981;28;20456;-79
2023/01/06 14:33:04;;;;;;;21.93;20.53;;;;;;;;;;5097783;28;20400;-78